Time;durP1;ratioP1;P1;durP2;ratioP2;P2;SDS_P1;SDS_P2;PMS_P1;PMS_P2;Temp;Humidity;BMP_temperature;BMP_pressure;BME280_temperature;BME280_humidity;BME280_pressure;Samples;Min_cycle;Max_cycle;Signal;HPM_P1;HPM_P2
2022/03/10 00:00:01;;;;;;;15.30;8.97;;;4.10;99.90;;;;;;5055862;28;20445;-82
2022/03/10 00:02:28;;;;;;;13.60;8.13;;;4.10;99.90;;;;;;5056129;28;20455;-81
2022/03/10 00:04:56;;;;;;;14.47;9.10;;;4.10;99.90;;;;;;5055129;28;20473;-82
2022/03/10 00:07:23;;;;;;;15.17;9.90;;;4.10;99.90;;;;;;5053407;28;20464;-81
2022/03/10 00:09:50;;;;;;;13.67;8.90;;;4.10;99.90;;;;;;5056459;28;20545;-82
2022/03/10 00:12:16;;;;;;;16.23;10.00;;;4.10;99.90;;;;;;5056178;28;20535;-82
2022/03/10 00:14:44;;;;;;;14.30;9.83;;;4.10;99.90;;;;;;5052963;28;20517;-81
2022/03/10 00:17:10;;;;;;;14.23;9.50;;;4.10;99.90;;;;;;5052295;28;20482;-79
2022/03/10 00:19:37;;;;;;;12.73;9.50;;;4.00;99.90;;;;;;5055957;28;20453;-80
2022/03/10 00:22:06;;;;;;;14.53;9.47;;;4.00;99.90;;;;;;5054414;28;20454;-82
2022/03/10 00:24:33;;;;;;;13.33;9.33;;;4.00;99.90;;;;;;5054764;28;20477;-80
2022/03/10 00:27:00;;;;;;;16.27;11.23;;;4.00;99.90;;;;;;5050851;28;20448;-80
2022/03/10 00:29:28;;;;;;;14.63;10.10;;;4.00;99.90;;;;;;5053243;28;20490;-80
2022/03/10 00:31:54;;;;;;;15.67;11.20;;;4.00;99.90;;;;;;5056325;28;20428;-79
2022/03/10 00:34:21;;;;;;;15.57;10.07;;;3.90;99.90;;;;;;5054329;28;20837;-80
2022/03/10 00:36:48;;;;;;;19.83;12.07;;;3.90;99.90;;;;;;5054533;28;20489;-80
2022/03/10 00:39:16;;;;;;;16.23;10.93;;;3.90;99.90;;;;;;5055333;28;20513;-80
2022/03/10 00:41:43;;;;;;;15.10;10.67;;;3.80;99.90;;;;;;5055751;28;20452;-79
2022/03/10 00:44:09;;;;;;;16.70;10.70;;;3.80;99.90;;;;;;5051829;28;20483;-78
2022/03/10 00:46:36;;;;;;;16.03;9.80;;;3.80;99.90;;;;;;5054801;28;20453;-79
2022/03/10 00:49:03;;;;;;;17.37;10.40;;;3.80;99.90;;;;;;5051521;28;20502;-79
2022/03/10 00:51:30;;;;;;;17.33;10.70;;;3.70;99.90;;;;;;5055566;28;20427;-81
2022/03/10 00:53:56;;;;;;;15.17;10.00;;;3.70;99.90;;;;;;5050564;28;20452;-80
2022/03/10 00:56:25;;;;;;;14.77;10.40;;;3.70;99.90;;;;;;5056821;28;20479;-79
2022/03/10 00:58:51;;;;;;;15.13;10.50;;;3.60;99.90;;;;;;5056793;28;20480;-80
2022/03/10 01:01:18;;;;;;;15.37;10.10;;;3.60;99.90;;;;;;5055567;28;20452;-81
2022/03/10 01:03:45;;;;;;;18.03;10.43;;;3.60;99.90;;;;;;5060073;28;20468;-81
2022/03/10 01:06:12;;;;;;;14.90;9.60;;;3.50;99.90;;;;;;5058989;28;21128;-81
2022/03/10 01:08:38;;;;;;;14.37;9.60;;;3.50;99.90;;;;;;5057577;28;20492;-81
2022/03/10 01:11:05;;;;;;;15.07;11.33;;;3.50;99.90;;;;;;5060914;28;20460;-81
2022/03/10 01:13:33;;;;;;;14.10;9.83;;;3.50;99.90;;;;;;5064355;28;20535;-81
2022/03/10 01:16:00;;;;;;;17.47;10.60;;;3.50;99.90;;;;;;5062813;28;20471;-81
2022/03/10 01:18:27;;;;;;;16.73;10.70;;;3.50;99.90;;;;;;5061376;28;20454;-81
2022/03/10 01:20:54;;;;;;;16.73;8.60;;;3.50;99.90;;;;;;5061873;28;20485;-80
2022/03/10 01:23:20;;;;;;;14.53;9.70;;;3.50;99.90;;;;;;5061035;28;21171;-80
2022/03/10 01:25:47;;;;;;;14.50;10.07;;;3.50;99.90;;;;;;5059973;28;20487;-81
2022/03/10 01:28:14;;;;;;;13.50;8.60;;;3.40;99.90;;;;;;5062235;28;20452;-80
2022/03/10 01:30:43;;;;;;;16.13;9.43;;;3.40;99.90;;;;;;5062110;28;20449;-82
2022/03/10 01:33:10;;;;;;;15.53;10.03;;;3.50;99.90;;;;;;5056318;28;21118;-81
2022/03/10 01:35:37;;;;;;;13.27;9.43;;;3.50;99.90;;;;;;5058711;28;20465;-81
2022/03/10 01:38:04;;;;;;;15.50;10.30;;;3.40;99.90;;;;;;5056918;28;20451;-81
2022/03/10 01:40:31;;;;;;;17.13;11.03;;;3.40;99.90;;;;;;5058552;28;20897;-81
2022/03/10 01:42:58;;;;;;;13.83;9.63;;;3.40;99.90;;;;;;5058252;28;20545;-80
2022/03/10 01:45:24;;;;;;;14.60;10.20;;;3.40;99.90;;;;;;5058791;28;20554;-81
2022/03/10 01:47:52;;;;;;;13.83;9.40;;;3.40;99.90;;;;;;5055695;28;20794;-81
2022/03/10 01:50:19;;;;;;;16.07;10.10;;;3.40;99.90;;;;;;5058010;28;20479;-81
2022/03/10 01:52:48;;;;;;;11.53;8.70;;;3.40;99.90;;;;;;5055852;28;20449;-81
2022/03/10 01:55:15;;;;;;;14.53;8.73;;;3.30;99.90;;;;;;5054411;28;20510;-81
2022/03/10 01:57:43;;;;;;;13.97;9.07;;;3.30;99.90;;;;;;5055576;28;20482;-81
2022/03/10 02:00:11;;;;;;;16.30;9.70;;;3.30;99.90;;;;;;5057180;28;20472;-81
2022/03/10 02:02:38;;;;;;;13.10;9.37;;;3.30;99.90;;;;;;5055805;28;20481;-81
2022/03/10 02:05:07;;;;;;;17.07;11.33;;;3.30;99.90;;;;;;5052731;28;20472;-81
2022/03/10 02:10:18;;;;;;;15.90;10.63;;;3.20;99.90;;;;;;5057536;28;20558;-81
2022/03/10 02:12:46;;;;;;;15.03;9.47;;;3.20;99.90;;;;;;5057934;28;20789;-80
2022/03/10 02:17:59;;;;;;;15.30;10.10;;;3.10;99.90;;;;;;5055802;28;20394;-81
2022/03/10 02:20:28;;;;;;;14.90;10.47;;;3.00;99.90;;;;;;5058390;28;20453;-81
2022/03/10 02:22:56;;;;;;;14.80;9.83;;;3.00;99.90;;;;;;5058057;28;20818;-80
2022/03/10 02:25:24;;;;;;;14.67;9.73;;;3.00;99.90;;;;;;5057289;28;20517;-81
2022/03/10 02:27:52;;;;;;;16.70;10.10;;;2.90;99.90;;;;;;5058773;28;20437;-81
2022/03/10 02:30:19;;;;;;;15.70;9.70;;;2.90;99.90;;;;;;5057420;28;21014;-81
2022/03/10 02:32:46;;;;;;;17.53;10.47;;;2.90;99.90;;;;;;5058364;28;20824;-81
2022/03/10 02:35:14;;;;;;;16.63;11.00;;;2.90;99.90;;;;;;5057534;28;20472;-82
2022/03/10 02:37:40;;;;;;;16.43;11.23;;;2.80;99.90;;;;;;5058280;28;20426;-81
2022/03/10 02:40:11;;;;;;;18.80;10.60;;;2.80;99.90;;;;;;5058226;28;20435;-81
2022/03/10 02:42:38;;;;;;;15.20;9.67;;;2.80;99.90;;;;;;5057463;28;20468;-79
2022/03/10 02:45:07;;;;;;;19.00;10.90;;;2.70;99.90;;;;;;5058246;28;20529;-82
2022/03/10 02:47:34;;;;;;;19.70;10.80;;;2.70;99.90;;;;;;5057971;28;20452;-82
2022/03/10 02:50:03;;;;;;;18.17;10.80;;;2.70;99.90;;;;;;5058134;28;20476;-83
2022/03/10 02:52:30;;;;;;;15.53;9.87;;;2.70;99.90;;;;;;5054509;28;20418;-82
2022/03/10 02:54:57;;;;;;;15.80;10.07;;;2.60;99.90;;;;;;5057202;28;20475;-84
2022/03/10 02:57:27;;;;;;;13.93;9.30;;;2.50;99.90;;;;;;5058094;28;20451;-84
2022/03/10 02:59:54;;;;;;;16.63;10.13;;;2.50;99.90;;;;;;5058428;28;20437;-82
2022/03/10 03:02:21;;;;;;;16.70;10.00;;;2.50;99.90;;;;;;5058158;28;20918;-83
2022/03/10 03:04:48;;;;;;;15.90;9.67;;;2.50;99.90;;;;;;5058471;28;20454;-82
2022/03/10 03:07:14;;;;;;;15.77;10.60;;;2.40;99.90;;;;;;5058032;28;20444;-83
2022/03/10 03:09:41;;;;;;;15.93;9.40;;;2.40;99.90;;;;;;5061347;28;20510;-84
2022/03/10 03:12:08;;;;;;;16.60;10.17;;;2.30;99.90;;;;;;5059770;28;20430;-83
2022/03/10 03:14:36;;;;;;;16.70;9.83;;;2.30;99.90;;;;;;5043201;28;20471;-82
2022/03/10 03:17:03;;;;;;;17.63;10.53;;;2.30;99.90;;;;;;5057795;28;20516;-83
2022/03/10 03:19:30;;;;;;;15.20;9.57;;;2.20;99.90;;;;;;5057117;28;20480;-84
2022/03/10 03:21:57;;;;;;;15.77;11.10;;;2.20;99.90;;;;;;5057735;28;20422;-83
2022/03/10 03:24:24;;;;;;;17.37;10.53;;;2.20;99.90;;;;;;5056735;28;20526;-83
2022/03/10 03:26:50;;;;;;;18.30;11.97;;;2.10;99.90;;;;;;5058006;28;20452;-82
2022/03/10 03:29:18;;;;;;;15.00;10.57;;;2.10;99.90;;;;;;5056994;28;20951;-82
2022/03/10 03:31:46;;;;;;;17.30;11.70;;;2.10;99.90;;;;;;5058313;28;20962;-83
2022/03/10 03:34:13;;;;;;;17.60;9.97;;;2.10;99.90;;;;;;5057653;28;20463;-84
2022/03/10 03:36:41;;;;;;;14.97;9.30;;;2.00;99.90;;;;;;5058279;28;20448;-83
2022/03/10 03:39:08;;;;;;;16.23;9.77;;;2.00;99.90;;;;;;5069005;28;20443;-82
2022/03/10 03:41:35;;;;;;;14.63;8.97;;;2.00;99.90;;;;;;5069204;28;20426;-80
2022/03/10 03:44:02;;;;;;;13.83;9.20;;;2.00;99.90;;;;;;5068911;28;20468;-83
2022/03/10 03:46:30;;;;;;;17.03;9.50;;;2.00;99.90;;;;;;5069214;28;20474;-82
2022/03/10 03:48:58;;;;;;;12.60;9.30;;;1.90;99.90;;;;;;5069354;28;20449;-83
2022/03/10 03:51:25;;;;;;;16.43;10.90;;;1.90;99.90;;;;;;5069359;28;20444;-82
2022/03/10 03:53:51;;;;;;;19.30;10.70;;;1.90;99.90;;;;;;5068817;28;20507;-84
2022/03/10 03:56:19;;;;;;;18.00;10.80;;;1.90;99.90;;;;;;5061450;28;20456;-84
2022/03/10 03:58:46;;;;;;;13.90;9.73;;;1.90;99.90;;;;;;5057945;28;20441;-83
2022/03/10 04:01:12;;;;;;;14.43;9.10;;;1.90;99.90;;;;;;5056689;28;20475;-82
2022/03/10 04:03:39;;;;;;;14.60;10.30;;;1.90;99.90;;;;;;5056825;28;20448;-81
2022/03/10 04:06:07;;;;;;;14.03;9.63;;;1.90;99.90;;;;;;5057301;28;20444;-83
2022/03/10 04:08:34;;;;;;;15.60;10.33;;;1.80;99.90;;;;;;5058188;28;20839;-83
2022/03/10 04:11:02;;;;;;;15.27;9.23;;;1.80;99.90;;;;;;5057502;28;20439;-83
2022/03/10 04:13:28;;;;;;;11.53;9.33;;;1.80;99.90;;;;;;5056182;28;20452;-82
2022/03/10 04:15:55;;;;;;;18.03;11.13;;;1.80;99.90;;;;;;5057589;28;20434;-83
2022/03/10 04:18:22;;;;;;;16.77;9.97;;;1.80;99.90;;;;;;5056641;28;20460;-83
2022/03/10 04:20:49;;;;;;;14.30;9.50;;;1.80;99.90;;;;;;5057134;28;20471;-83
2022/03/10 04:23:17;;;;;;;16.93;10.43;;;1.80;99.90;;;;;;5057057;28;21403;-82
2022/03/10 04:25:44;;;;;;;13.93;9.20;;;1.80;99.90;;;;;;5057020;28;20484;-84
2022/03/10 04:28:11;;;;;;;15.70;9.10;;;1.70;99.90;;;;;;5066668;28;20452;-83
2022/03/10 04:30:38;;;;;;;18.10;9.93;;;1.70;99.90;;;;;;5066581;28;20437;-82
2022/03/10 04:33:05;;;;;;;13.63;8.33;;;1.70;99.90;;;;;;5066946;28;20443;-82
2022/03/10 04:35:32;;;;;;;14.63;9.33;;;1.70;99.90;;;;;;5067775;28;20541;-83
2022/03/10 04:37:59;;;;;;;19.03;10.03;;;1.60;99.90;;;;;;5066778;28;20444;-82
2022/03/10 04:40:28;;;;;;;13.17;8.50;;;1.60;99.90;;;;;;5069184;28;20482;-83
2022/03/10 04:42:55;;;;;;;14.60;9.07;;;1.60;99.90;;;;;;5069558;28;20463;-82
2022/03/10 04:45:23;;;;;;;14.77;9.60;;;1.60;99.90;;;;;;5060971;28;20524;-83
2022/03/10 04:47:50;;;;;;;19.30;10.03;;;1.60;99.90;;;;;;5060600;28;20474;-84
2022/03/10 04:50:18;;;;;;;14.10;9.80;;;1.50;99.90;;;;;;5060059;28;20429;-83
2022/03/10 04:52:45;;;;;;;17.40;9.87;;;1.50;99.90;;;;;;5045367;28;20419;-82
2022/03/10 04:55:13;;;;;;;15.10;9.30;;;1.50;99.90;;;;;;5060376;28;21006;-82
2022/03/10 04:57:42;;;;;;;16.42;11.77;;;1.50;99.90;;;;;;5060411;28;20805;-82
2022/03/10 05:00:11;;;;;;;17.30;11.07;;;1.40;99.90;;;;;;5060207;28;20218;-82
2022/03/10 05:02:39;;;;;;;15.20;9.60;;;1.40;99.90;;;;;;5060476;28;20435;-83
2022/03/10 05:05:07;;;;;;;14.43;9.33;;;1.40;99.90;;;;;;5059880;28;20470;-83
2022/03/10 05:07:34;;;;;;;13.13;8.67;;;1.30;99.90;;;;;;5060850;28;20954;-81
2022/03/10 05:10:01;;;;;;;11.53;8.00;;;1.30;99.90;;;;;;5060529;28;20429;-83
2022/03/10 05:12:28;;;;;;;16.97;11.17;;;1.30;99.90;;;;;;5061001;28;20953;-83
2022/03/10 05:14:56;;;;;;;14.77;9.90;;;1.30;99.90;;;;;;5060119;28;20438;-83
2022/03/10 05:17:24;;;;;;;11.60;8.40;;;1.30;99.90;;;;;;5060364;28;20564;-81
2022/03/10 05:19:52;;;;;;;12.43;8.65;;;1.30;99.90;;;;;;5060600;28;20482;-82
2022/03/10 05:22:19;;;;;;;18.83;9.70;;;1.30;99.90;;;;;;5060439;28;20204;-84
2022/03/10 05:24:46;;;;;;;16.83;9.47;;;1.30;99.90;;;;;;5059814;28;20461;-84
2022/03/10 05:27:13;;;;;;;16.17;10.10;;;1.30;99.90;;;;;;5061536;28;20441;-83
2022/03/10 05:29:41;;;;;;;13.40;9.37;;;1.30;99.90;;;;;;5060672;28;20777;-83
2022/03/10 05:32:12;;;;;;;14.40;9.10;;;1.30;99.90;;;;;;5064603;28;20419;-83
2022/03/10 05:34:38;;;;;;;15.43;9.40;;;1.30;99.90;;;;;;5059685;28;20443;-83
2022/03/10 05:37:05;;;;;;;14.20;9.97;;;1.30;99.90;;;;;;5060101;28;20429;-83
2022/03/10 05:39:32;;;;;;;13.80;8.47;;;1.30;99.90;;;;;;5059977;28;20511;-83
2022/03/10 05:41:59;;;;;;;13.23;8.47;;;1.30;99.90;;;;;;5060111;28;21009;-84
2022/03/10 05:46:33;;;;;;;12.35;7.80;;;1.20;99.90;;;;;;5099606;27;20961;-82
2022/03/10 05:49:00;;;;;;;12.10;7.17;;;1.50;99.90;;;;;;5098355;28;20188;-82
2022/03/10 05:51:27;;;;;;;15.07;9.10;;;1.40;99.90;;;;;;5097225;28;20500;-81
2022/03/10 05:53:53;;;;;;;12.33;7.80;;;1.30;99.90;;;;;;5095019;28;20545;-84
2022/03/10 05:56:20;;;;;;;13.37;8.03;;;1.50;99.90;;;;;;5091859;28;20510;-83
2022/03/10 05:58:47;;;;;;;13.13;8.07;;;1.50;99.90;;;;;;5083368;28;20461;-82
2022/03/10 06:01:14;;;;;;;12.90;8.57;;;;;;;;;;5079632;28;20462;-83
2022/03/10 06:03:43;;;;;;;12.37;8.13;;;1.60;99.90;;;;;;5091155;28;20451;-82
2022/03/10 06:06:12;;;;;;;12.10;8.13;;;1.30;99.90;;;;;;5088467;28;20511;-82
2022/03/10 06:08:39;;;;;;;12.67;7.90;;;1.50;99.90;;;;;;5083365;28;20471;-84
2022/03/10 06:11:07;;;;;;;11.30;7.83;;;0.90;99.90;;;;;;5083818;28;20461;-84
2022/03/10 06:13:34;;;;;;;10.77;7.03;;;1.60;99.90;;;;;;5081099;28;20438;-84
2022/03/10 06:16:01;;;;;;;16.50;7.20;;;1.60;99.90;;;;;;5085651;28;20521;-84
2022/03/10 06:18:27;;;;;;;11.00;7.47;;;1.60;99.90;;;;;;5075370;28;20497;-84
2022/03/10 06:20:56;;;;;;;9.50;7.20;;;1.50;99.90;;;;;;5079627;28;20636;-84
2022/03/10 06:23:22;;;;;;;20.90;7.93;;;1.60;99.90;;;;;;5074328;28;20447;-84
2022/03/10 06:25:49;;;;;;;15.50;7.80;;;1.60;99.90;;;;;;5075463;28;20489;-83
2022/03/10 06:28:16;;;;;;;12.47;9.57;;;1.60;99.90;;;;;;5075424;28;20425;-83
2022/03/10 06:30:43;;;;;;;12.23;7.30;;;1.70;99.90;;;;;;5075699;28;20475;-84
2022/03/10 06:33:09;;;;;;;12.77;8.70;;;1.70;99.90;;;;;;5077502;28;20443;-83
2022/03/10 06:35:36;;;;;;;13.40;8.10;;;1.80;99.90;;;;;;5092411;28;20876;-84
2022/03/10 06:38:04;;;;;;;12.07;7.50;;;1.80;99.90;;;;;;5094367;28;20421;-83
2022/03/10 06:40:31;;;;;;;13.37;7.90;;;1.90;99.90;;;;;;5092039;28;20465;-84
2022/03/10 06:42:58;;;;;;;14.30;8.50;;;2.00;99.90;;;;;;5084080;28;20426;-87
2022/03/10 06:45:25;;;;;;;14.13;7.90;;;2.00;99.90;;;;;;5073112;28;20458;-84
2022/03/10 06:47:52;;;;;;;11.83;7.97;;;2.10;99.90;;;;;;5093088;28;20958;-84
2022/03/10 06:50:19;;;;;;;13.07;7.97;;;2.10;99.90;;;;;;5088473;28;20440;-83
2022/03/10 06:52:46;;;;;;;12.37;8.80;;;2.20;99.90;;;;;;5082567;28;20491;-84
2022/03/10 06:55:14;;;;;;;17.73;9.43;;;2.30;99.90;;;;;;5083032;28;21011;-84
2022/03/10 06:57:41;;;;;;;13.70;8.70;;;2.40;99.90;;;;;;5073079;28;20519;-85
2022/03/10 07:00:09;;;;;;;13.20;7.90;;;2.60;99.90;;;;;;5075306;28;20426;-84
2022/03/10 07:02:36;;;;;;;11.40;7.83;;;2.60;99.90;;;;;;5082304;28;20541;-85
2022/03/10 07:05:03;;;;;;;12.40;8.23;;;2.90;99.90;;;;;;5080399;28;20479;-84
2022/03/10 07:07:30;;;;;;;12.40;8.00;;;3.10;99.90;;;;;;5076702;28;20460;-85
2022/03/10 07:09:56;;;;;;;11.70;7.50;;;3.20;99.90;;;;;;5069136;28;20452;-85
2022/03/10 07:12:27;;;;;;;11.93;7.60;;;3.30;99.90;;;;;;5084218;28;20474;-84
2022/03/10 07:14:54;;;;;;;14.13;9.07;;;3.50;99.90;;;;;;5079525;28;20465;-84
2022/03/10 07:17:21;;;;;;;14.50;8.23;;;3.70;99.90;;;;;;5089795;28;20458;-85
2022/03/10 07:19:47;;;;;;;13.90;8.07;;;3.90;99.90;;;;;;5082243;28;20433;-85
2022/03/10 07:22:18;;;;;;;12.43;8.30;;;4.10;99.90;;;;;;5085448;28;20447;-84
2022/03/10 07:24:44;;;;;;;15.80;8.63;;;4.20;99.90;;;;;;5081022;28;20474;-84
2022/03/10 07:27:11;;;;;;;13.07;8.30;;;4.30;99.90;;;;;;5088753;28;20455;-84
2022/03/10 07:29:40;;;;;;;13.63;8.40;;;4.50;99.90;;;;;;5075546;28;20525;-83
2022/03/10 07:32:10;;;;;;;13.00;7.97;;;4.60;99.90;;;;;;5079970;28;20520;-84
2022/03/10 07:34:39;;;;;;;22.47;8.87;;;4.80;99.90;;;;;;5075198;28;20500;-85
2022/03/10 07:37:06;;;;;;;15.70;9.57;;;4.80;99.90;;;;;;5080586;28;20520;-84
2022/03/10 07:39:32;;;;;;;13.40;9.07;;;5.00;99.90;;;;;;5082413;28;20469;-84
2022/03/10 07:42:00;;;;;;;16.03;8.73;;;5.10;99.90;;;;;;5079080;28;20450;-83
2022/03/10 07:44:27;;;;;;;12.73;8.90;;;5.20;99.90;;;;;;5079529;28;20484;-84
2022/03/10 07:46:55;;;;;;;16.37;9.53;;;5.30;99.90;;;;;;5080829;28;20478;-85
2022/03/10 07:49:22;;;;;;;14.97;9.00;;;5.40;99.90;;;;;;5073764;28;20457;-84
2022/03/10 07:51:49;;;;;;;15.87;9.30;;;5.60;99.90;;;;;;5073303;28;20899;-82
2022/03/10 07:54:22;;;;;;;15.17;8.77;;;5.80;99.90;;;;;;5074499;28;20490;-83
2022/03/10 07:56:51;;;;;;;12.83;8.37;;;5.90;99.90;;;;;;5071198;28;20448;-83
2022/03/10 07:59:18;;;;;;;14.40;8.90;;;5.90;99.90;;;;;;5078175;28;20507;-84
2022/03/10 08:01:45;;;;;;;14.87;9.43;;;6.20;99.90;;;;;;5071563;28;20454;-84
2022/03/10 08:04:13;;;;;;;14.53;9.00;;;6.30;99.90;;;;;;5071973;28;20506;-83
2022/03/10 08:06:40;;;;;;;15.40;10.13;;;6.50;99.90;;;;;;5067742;28;20481;-90
2022/03/10 08:09:07;;;;;;;20.43;9.53;;;6.60;99.90;;;;;;5066068;28;20476;-87
2022/03/10 08:11:34;;;;;;;16.83;9.27;;;6.70;99.90;;;;;;5067580;28;20474;-84
2022/03/10 08:14:00;;;;;;;15.43;10.00;;;7.00;99.90;;;;;;5077234;28;21028;-84
2022/03/10 08:16:27;;;;;;;16.20;9.20;;;7.20;99.90;;;;;;5069633;28;20447;-83
2022/03/10 08:18:54;;;;;;;14.63;8.63;;;7.60;99.90;;;;;;5073125;28;20475;-83
2022/03/10 08:21:25;;;;;;;21.13;9.87;;;8.10;99.90;;;;;;5077313;28;20448;-84
2022/03/10 08:23:54;;;;;;;18.53;9.70;;;8.60;99.90;;;;;;5071451;28;20439;-85
2022/03/10 08:26:21;;;;;;;16.73;9.63;;;8.90;99.90;;;;;;5073151;28;20490;-83
2022/03/10 08:28:51;;;;;;;15.03;9.90;;;9.00;99.90;;;;;;5071058;28;20476;-84
2022/03/10 08:31:18;;;;;;;17.03;9.67;;;9.30;99.90;;;;;;5076395;28;20483;-86
2022/03/10 08:33:46;;;;;;;20.90;10.93;;;9.60;99.90;;;;;;5070510;28;20466;-80
2022/03/10 08:36:16;;;;;;;20.77;11.10;;;9.90;99.90;;;;;;5070310;28;20449;-81
2022/03/10 08:38:44;;;;;;;16.43;9.43;;;10.30;99.90;;;;;;5064908;28;20458;-85
2022/03/10 08:41:11;;;;;;;17.30;10.67;;;11.30;99.90;;;;;;5080006;28;20469;-82
2022/03/10 08:43:38;;;;;;;12.77;9.87;;;12.10;99.90;;;;;;5077275;28;20458;-85
2022/03/10 08:46:05;;;;;;;18.10;10.83;;;12.80;99.90;;;;;;5072708;28;20500;-83
2022/03/10 08:48:34;;;;;;;19.33;10.97;;;13.30;97.20;;;;;;5074914;28;20903;-83
2022/03/10 08:51:02;;;;;;;20.17;11.67;;;13.20;99.90;;;;;;5080270;28;20464;-83
2022/03/10 08:53:29;;;;;;;18.00;9.93;;;;;;;;;;5071026;28;20902;-86
2022/03/10 08:55:59;;;;;;;18.60;11.43;;;14.30;90.50;;;;;;5073079;28;20576;-85
2022/03/10 08:58:31;;;;;;;22.37;12.30;;;14.50;97.40;;;;;;5077651;28;20545;-83
2022/03/10 09:00:58;;;;;;;17.43;11.80;;;14.70;89.80;;;;;;5067093;28;20454;-83
2022/03/10 09:03:26;;;;;;;15.90;10.67;;;15.20;87.80;;;;;;5078325;28;20443;-83
2022/03/10 09:05:53;;;;;;;15.00;11.93;;;16.70;85.70;;;;;;5073602;28;20492;-85
2022/03/10 09:08:21;;;;;;;20.40;12.73;;;16.60;76.90;;;;;;5079684;28;20451;-84
2022/03/10 09:10:48;;;;;;;19.20;12.63;;;16.50;75.40;;;;;;5082860;28;20473;-84
2022/03/10 09:13:16;;;;;;;17.20;12.73;;;16.60;74.30;;;;;;5073196;28;20453;-83
2022/03/10 09:15:45;;;;;;;18.63;12.67;;;16.80;71.40;;;;;;5059824;28;20486;-83
2022/03/10 09:18:12;;;;;;;20.87;13.27;;;17.60;71.40;;;;;;5060589;28;20539;-86
2022/03/10 09:20:39;;;;;;;15.43;11.77;;;18.20;68.80;;;;;;5059571;28;20522;-84
2022/03/10 09:23:07;;;;;;;17.80;13.60;;;18.70;68.60;;;;;;5059635;28;20476;-84
2022/03/10 09:25:34;;;;;;;17.63;12.37;;;20.20;66.40;;;;;;5059529;28;20490;-85
2022/03/10 09:28:01;;;;;;;18.67;14.53;;;20.80;62.70;;;;;;5063368;28;20472;-85
2022/03/10 09:30:30;;;;;;;17.33;13.00;;;20.80;59.20;;;;;;5079453;28;20454;-85
2022/03/10 09:32:57;;;;;;;19.67;13.30;;;22.20;58.10;;;;;;5079302;28;20458;-83
2022/03/10 09:35:25;;;;;;;17.83;14.13;;;23.20;54.30;;;;;;5079492;28;20478;-84
2022/03/10 09:37:52;;;;;;;22.27;14.07;;;24.30;51.70;;;;;;5072024;28;20505;-83
2022/03/10 09:40:20;;;;;;;19.53;15.90;;;25.30;50.00;;;;;;5066004;28;20484;-85
2022/03/10 09:42:49;;;;;;;21.30;15.30;;;25.10;47.10;;;;;;5064820;28;20966;-84
2022/03/10 09:45:18;;;;;;;19.67;15.80;;;25.80;46.30;;;;;;5079959;28;21042;-83
2022/03/10 09:47:47;;;;;;;17.97;14.00;;;25.20;43.50;;;;;;5078580;28;20443;-85
2022/03/10 09:50:16;;;;;;;16.90;15.00;;;26.90;46.80;;;;;;5059751;28;20524;-84
2022/03/10 09:52:44;;;;;;;17.07;14.53;;;27.90;43.60;;;;;;5075949;28;20455;-85
2022/03/10 09:55:12;;;;;;;16.80;14.47;;;27.60;41.40;;;;;;5059985;28;20472;-83
2022/03/10 09:57:40;;;;;;;16.00;14.37;;;28.40;40.30;;;;;;5062878;28;20541;-85
2022/03/10 10:00:10;;;;;;;19.00;16.77;;;29.20;38.20;;;;;;5080523;28;20443;-85
2022/03/10 10:02:40;;;;;;;20.80;17.20;;;29.50;36.20;;;;;;5078453;28;20505;-85
2022/03/10 10:05:25;;;;;;;19.20;16.50;;;28.60;35.20;;;;;;5078379;28;20479;-84
2022/03/10 10:08:02;;;;;;;18.00;16.10;;;28.60;35.20;;;;;;5070504;28;20439;-85
2022/03/10 10:10:30;;;;;;;18.53;15.90;;;28.90;35.00;;;;;;5075848;28;20459;-85
2022/03/10 10:12:57;;;;;;;18.43;16.17;;;30.40;34.80;;;;;;5061847;28;20459;-82
2022/03/10 10:15:24;;;;;;;18.83;16.83;;;29.60;33.70;;;;;;5065578;28;20532;-83
2022/03/10 10:17:56;;;;;;;18.17;16.10;;;29.40;33.40;;;;;;5075192;28;20978;-84
2022/03/10 10:20:24;;;;;;;17.93;15.97;;;30.00;35.40;;;;;;5059365;28;20931;-83
2022/03/10 10:22:52;;;;;;;19.57;17.50;;;28.90;31.70;;;;;;5073619;28;20458;-82
2022/03/10 10:25:21;;;;;;;21.73;16.20;;;29.40;33.30;;;;;;5079098;28;20983;-85
2022/03/10 10:27:48;;;;;;;20.13;16.73;;;29.40;32.20;;;;;;5078006;28;20505;-87
2022/03/10 10:30:15;;;;;;;17.97;16.00;;;30.00;32.80;;;;;;5077820;28;20485;-83
2022/03/10 10:32:48;;;;;;;19.00;16.87;;;29.10;33.30;;;;;;5074376;28;20458;-85
2022/03/10 10:35:20;;;;;;;17.30;15.60;;;29.00;31.30;;;;;;5077224;28;20474;-84
2022/03/10 10:37:50;;;;;;;18.70;16.70;;;29.00;31.30;;;;;;5062968;28;21097;-85
2022/03/10 10:40:21;;;;;;;18.20;15.43;;;29.70;32.20;;;;;;5062954;28;20464;-84
2022/03/10 10:42:48;;;;;;;21.87;17.47;;;30.00;32.30;;;;;;5063765;28;20543;-83
2022/03/10 10:45:34;;;;;;;17.60;15.20;;;30.00;29.80;;;;;;5062042;28;20490;-85
2022/03/10 10:48:02;;;;;;;20.77;16.37;;;29.10;30.30;;;;;;5067994;28;20474;-83
2022/03/10 10:50:30;;;;;;;17.70;15.87;;;30.10;31.10;;;;;;5067414;28;20460;-86
2022/03/10 10:52:59;;;;;;;18.63;16.67;;;30.40;32.00;;;;;;5065465;28;20456;-85
2022/03/10 10:55:32;;;;;;;18.07;16.17;;;30.80;30.00;;;;;;5065126;28;20471;-84
2022/03/10 10:58:09;;;;;;;17.00;14.50;;;30.60;30.50;;;;;;5063789;28;20452;-84
2022/03/10 11:00:44;;;;;;;18.20;16.27;;;31.90;30.70;;;;;;5063504;28;20453;-85
2022/03/10 11:03:22;;;;;;;17.10;15.40;;;31.30;30.70;;;;;;5071267;28;20490;-84
2022/03/10 11:05:49;;;;;;;18.70;16.80;;;31.60;30.10;;;;;;5070323;28;20459;-85
2022/03/10 11:08:20;;;;;;;16.77;15.07;;;32.30;30.20;;;;;;5073359;28;20466;-86
2022/03/10 11:10:50;;;;;;;17.80;15.93;;;32.00;28.40;;;;;;5076983;28;20474;-83
2022/03/10 11:13:25;;;;;;;16.80;14.93;;;32.40;29.00;;;;;;5073306;28;20436;-82
2022/03/10 11:15:53;;;;;;;16.10;14.50;;;32.60;28.30;;;;;;5076178;28;20485;-83
2022/03/10 11:18:22;;;;;;;18.43;16.57;;;33.00;30.00;;;;;;5076101;28;20462;-85
2022/03/10 11:20:54;;;;;;;16.73;14.97;;;32.50;29.10;;;;;;5077833;28;20515;-83
2022/03/10 11:23:33;;;;;;;17.80;16.00;;;32.80;28.40;;;;;;5077395;28;20451;-85
2022/03/10 11:26:08;;;;;;;15.47;13.77;;;32.00;29.00;;;;;;5081799;28;20451;-83
2022/03/10 11:28:41;;;;;;;16.47;14.70;;;32.30;28.60;;;;;;5081726;28;20424;-84
2022/03/10 11:31:09;;;;;;;15.13;13.60;;;31.30;29.40;;;;;;5069428;28;20511;-84
2022/03/10 11:33:37;;;;;;;14.70;13.13;;;31.70;28.20;;;;;;5085565;28;20449;-84
2022/03/10 11:36:20;;;;;;;15.07;13.00;;;32.00;27.70;;;;;;5073319;28;20495;-86
2022/03/10 11:38:53;;;;;;;13.27;11.87;;;31.30;27.50;;;;;;5079560;28;20445;-81
2022/03/10 11:41:20;;;;;;;15.90;13.80;;;31.50;28.30;;;;;;5077915;28;20487;-84
2022/03/10 11:43:58;;;;;;;14.77;13.10;;;31.50;28.70;;;;;;5075146;28;21038;-82
2022/03/10 11:46:27;;;;;;;13.83;12.57;;;31.90;28.00;;;;;;5078124;28;20488;-83
2022/03/10 11:49:02;;;;;;;13.80;12.40;;;30.00;29.20;;;;;;5076756;28;20444;-84
2022/03/10 11:51:59;;;;;;;12.77;11.47;;;31.00;29.40;;;;;;5087551;28;20526;-84
2022/03/10 11:54:28;;;;;;;12.80;11.60;;;32.90;30.20;;;;;;5047922;28;20487;-84
2022/03/10 11:57:01;;;;;;;14.30;12.80;;;32.40;29.00;;;;;;5079315;28;20456;-83
2022/03/10 11:59:43;;;;;;;12.50;11.17;;;32.30;27.40;;;;;;5088055;28;20873;-84
2022/03/10 12:02:40;;;;;;;13.83;12.53;;;33.70;30.30;;;;;;5082809;28;20459;-84
2022/03/10 12:05:08;;;;;;;13.03;10.80;;;34.50;27.90;;;;;;5074229;28;20475;-84
2022/03/10 12:07:36;;;;;;;12.83;11.53;;;33.70;26.40;;;;;;5082066;28;20577;-84
2022/03/10 12:10:06;;;;;;;12.07;9.97;;;33.70;27.00;;;;;;5081138;28;20458;-83
2022/03/10 12:12:38;;;;;;;11.23;10.00;;;34.00;27.70;;;;;;5069987;28;20456;-84
2022/03/10 12:15:50;;;;;;;10.70;9.60;;;33.70;27.60;;;;;;5070897;28;20507;-83
2022/03/10 12:18:23;;;;;;;10.80;9.70;;;33.10;29.00;;;;;;5077123;28;20459;-84
2022/03/10 12:20:53;;;;;;;12.63;11.43;;;32.40;26.70;;;;;;5080157;28;20454;-83
2022/03/10 12:23:23;;;;;;;10.97;9.37;;;32.10;27.50;;;;;;5080485;28;20508;-84
2022/03/10 12:25:53;;;;;;;8.83;7.93;;;32.60;27.60;;;;;;5072953;28;20900;-83
2022/03/10 12:28:24;;;;;;;9.23;8.30;;;33.10;26.70;;;;;;5061069;28;20491;-84
2022/03/10 12:31:01;;;;;;;9.30;8.40;;;34.40;27.00;;;;;;5061856;28;20951;-83
2022/03/10 12:33:28;;;;;;;9.00;8.20;;;34.50;27.00;;;;;;5061203;28;20506;-84
2022/03/10 12:35:56;;;;;;;8.67;7.80;;;35.50;26.80;;;;;;5069868;28;20566;-82
2022/03/10 12:38:39;;;;;;;8.73;7.83;;;35.10;27.10;;;;;;5077243;28;21020;-82
2022/03/10 12:41:08;;;;;;;9.53;7.90;;;36.10;27.40;;;;;;5070732;28;20578;-83
2022/03/10 12:43:35;;;;;;;9.10;7.50;;;36.00;26.80;;;;;;5081202;28;20986;-83
2022/03/10 12:46:03;;;;;;;9.33;7.03;;;35.60;27.20;;;;;;5070138;28;20480;-84
2022/03/10 12:48:40;;;;;;;7.67;6.83;;;35.40;26.70;;;;;;5077713;28;20574;-85
2022/03/10 12:51:21;;;;;;;7.80;6.70;;;36.20;26.00;;;;;;5067771;28;20442;-83
2022/03/10 12:53:48;;;;;;;7.20;6.50;;;34.40;25.20;;;;;;5085290;28;20485;-82